createdAt,value
2019-02-04T00:02:20.962Z,14.33
2019-02-04T00:04:51.761Z,13.40
2019-02-04T00:07:22.328Z,13.23
2019-02-04T00:09:52.953Z,14.10
2019-02-04T00:12:23.516Z,24.23
2019-02-04T00:14:53.815Z,20.53
2019-02-04T00:17:24.108Z,19.27
2019-02-04T00:19:55.150Z,18.77
2019-02-04T00:22:25.425Z,19.23
2019-02-04T00:24:55.870Z,13.70
2019-02-04T00:27:26.496Z,14.07
2019-02-04T00:29:57.019Z,13.97
2019-02-04T00:32:27.679Z,17.90
2019-02-04T00:34:58.432Z,16.50
2019-02-04T00:37:29.232Z,14.70
2019-02-04T00:39:59.555Z,14.67
2019-02-04T00:42:30.088Z,17.70
2019-02-04T00:45:00.758Z,17.97
2019-02-04T00:47:31.060Z,15.57
2019-02-04T00:50:01.684Z,16.13
2019-02-04T00:52:31.955Z,14.30
2019-02-04T00:55:02.918Z,13.40
2019-02-04T00:57:33.658Z,13.33
2019-02-04T01:00:06.003Z,14.33
2019-02-04T01:02:36.361Z,13.27
2019-02-04T01:05:08.149Z,15.73
2019-02-04T01:07:38.446Z,14.10
2019-02-04T01:10:10.662Z,12.80
2019-02-04T01:12:41.574Z,12.37
2019-02-04T01:15:12.095Z,16.37
2019-02-04T01:17:42.382Z,15.17
2019-02-04T01:20:15.442Z,16.20
2019-02-04T01:22:46.352Z,14.50
2019-02-04T01:25:17.114Z,15.73
2019-02-04T01:27:47.398Z,12.70
2019-02-04T01:30:18.477Z,13.27
2019-02-04T01:32:48.942Z,11.37
2019-02-04T01:35:19.301Z,12.10
2019-02-04T01:37:49.820Z,11.20
2019-02-04T01:40:24.920Z,10.23
2019-02-04T01:42:55.532Z,11.40
2019-02-04T01:45:26.049Z,12.03
2019-02-04T01:47:56.552Z,12.13
2019-02-04T01:50:27.085Z,11.00
2019-02-04T01:52:57.721Z,12.17
2019-02-04T01:55:28.064Z,17.20
2019-02-04T01:57:58.370Z,12.53
2019-02-04T02:00:31.619Z,13.27
2019-02-04T02:03:01.897Z,13.47
2019-02-04T02:05:32.382Z,12.10
2019-02-04T02:08:03.162Z,12.90
2019-02-04T02:10:33.687Z,15.70
2019-02-04T02:13:03.974Z,13.00
2019-02-04T02:15:35.155Z,13.97
2019-02-04T02:18:05.874Z,13.07
2019-02-04T02:20:36.331Z,11.53
2019-02-04T02:23:07.056Z,11.77
2019-02-04T02:25:37.618Z,13.10
2019-02-04T02:28:08.476Z,11.90
2019-02-04T02:30:39.244Z,9.70
2019-02-04T02:33:09.591Z,10.57
2019-02-04T02:35:39.946Z,14.40
2019-02-04T02:38:10.235Z,14.13
2019-02-04T02:40:40.908Z,11.23
2019-02-04T02:43:11.815Z,9.73
2019-02-04T02:45:42.440Z,7.37
2019-02-04T02:48:12.960Z,7.53
2019-02-04T02:50:43.485Z,8.23
2019-02-04T02:53:13.763Z,10.40
2019-02-04T02:55:44.606Z,12.00
2019-02-04T02:58:14.922Z,12.30
2019-02-04T03:00:47.322Z,12.33
2019-02-04T03:03:17.615Z,11.00
2019-02-04T03:05:47.960Z,10.30
2019-02-04T03:08:18.844Z,10.20
2019-02-04T03:10:49.377Z,10.77
2019-02-04T03:13:19.670Z,11.13
2019-02-04T03:15:50.619Z,10.17
2019-02-04T03:18:21.549Z,11.23
2019-02-04T03:20:52.173Z,10.80
2019-02-04T03:23:22.946Z,10.80
2019-02-04T03:25:53.711Z,9.83
2019-02-04T03:28:24.015Z,10.30
2019-02-04T03:30:54.399Z,8.73
2019-02-04T03:33:25.208Z,10.50
2019-02-04T03:35:55.592Z,10.17
2019-02-04T03:38:25.950Z,9.93
2019-02-04T03:40:56.260Z,10.90
2019-02-04T03:43:26.872Z,11.60
2019-02-04T03:45:57.789Z,10.87
2019-02-04T03:48:28.250Z,11.97
2019-02-04T03:50:58.816Z,11.43
2019-02-04T03:53:29.414Z,11.60
2019-02-04T03:55:59.738Z,11.03
2019-02-04T03:58:30.140Z,10.87
2019-02-04T04:01:00.819Z,11.00
2019-02-04T04:03:31.634Z,15.13
2019-02-04T04:06:02.358Z,11.27
2019-02-04T04:08:32.659Z,14.03
2019-02-04T04:11:03.001Z,12.43
2019-02-04T04:13:33.651Z,11.77
2019-02-04T04:16:04.015Z,12.10
2019-02-04T04:18:34.379Z,12.33
2019-02-04T04:21:05.177Z,11.80
2019-02-04T04:23:35.457Z,11.47
2019-02-04T04:26:05.954Z,12.23
2019-02-04T04:28:36.614Z,13.43
2019-02-04T04:31:07.326Z,12.77
2019-02-04T04:33:37.670Z,12.97
2019-02-04T04:36:08.248Z,14.30
2019-02-04T04:38:39.029Z,14.40
2019-02-04T04:41:09.331Z,16.57
2019-02-04T04:43:39.949Z,15.17
2019-02-04T04:46:10.542Z,12.30
2019-02-04T04:48:40.970Z,15.43
2019-02-04T04:51:11.485Z,16.60
2019-02-04T04:53:42.268Z,23.63
2019-02-04T04:56:12.551Z,18.93
2019-02-04T04:58:42.848Z,15.20
2019-02-04T05:01:13.633Z,13.07
2019-02-04T05:03:43.921Z,13.33
2019-02-04T05:06:14.678Z,16.13
2019-02-04T05:08:44.982Z,15.47
2019-02-04T05:11:15.427Z,14.83
2019-02-04T05:13:46.135Z,15.33
2019-02-04T05:16:16.454Z,13.70
2019-02-04T05:18:47.044Z,15.00
2019-02-04T05:21:17.731Z,17.07
2019-02-04T05:23:48.015Z,18.27
2019-02-04T05:26:18.381Z,16.40
2019-02-04T05:28:49.068Z,17.77
2019-02-04T05:31:19.826Z,17.00
2019-02-04T05:33:50.360Z,18.33
2019-02-04T05:36:21.127Z,17.43
2019-02-04T05:38:51.453Z,21.50
2019-02-04T05:41:22.000Z,19.57
2019-02-04T05:43:52.486Z,19.93
2019-02-04T05:46:22.909Z,23.17
2019-02-04T05:48:53.512Z,22.27
2019-02-04T05:51:23.952Z,20.00
2019-02-04T05:53:54.475Z,21.13
2019-02-04T05:56:25.129Z,22.47
2019-02-04T05:58:55.898Z,21.80
2019-02-04T06:01:26.172Z,32.50
2019-02-04T06:03:56.892Z,27.60
2019-02-04T06:06:27.276Z,27.63
2019-02-04T06:08:57.749Z,26.47
2019-02-04T06:11:28.337Z,23.83
2019-02-04T06:13:58.627Z,28.27
2019-02-04T06:16:29.410Z,24.07
2019-02-04T06:19:01.277Z,26.83
2019-02-04T06:21:31.645Z,28.93
2019-02-04T06:24:02.759Z,32.20
2019-02-04T06:26:33.353Z,35.23
2019-02-04T06:29:03.814Z,33.90
2019-02-04T06:31:34.285Z,31.40
2019-02-04T06:34:05.128Z,31.73
2019-02-04T06:36:35.425Z,27.83
2019-02-04T06:39:11.087Z,29.73
2019-02-04T06:41:41.607Z,28.27
2019-02-04T06:44:11.970Z,28.73
2019-02-04T06:46:42.578Z,22.80
2019-02-04T06:49:13.119Z,30.50
2019-02-04T06:51:43.469Z,36.87
2019-02-04T06:54:15.118Z,38.83
2019-02-04T06:56:45.444Z,43.43
2019-02-04T06:59:15.887Z,46.50
2019-02-04T07:01:46.682Z,42.30
2019-02-04T07:04:16.931Z,27.83
2019-02-04T07:06:47.270Z,28.63
2019-02-04T07:09:19.013Z,29.73
2019-02-04T07:11:49.317Z,49.83
2019-02-04T07:14:20.091Z,20.03
2019-02-04T07:16:50.582Z,24.63
2019-02-04T07:19:24.362Z,26.30
2019-02-04T07:21:52.999Z,27.90
2019-02-04T07:24:23.295Z,30.77
2019-02-04T07:26:53.619Z,28.13
2019-02-04T07:29:24.409Z,31.40
2019-02-04T07:31:54.715Z,28.73
2019-02-04T07:34:24.993Z,28.80
2019-02-04T07:36:55.709Z,30.30
2019-02-04T07:39:26.151Z,29.53
2019-02-04T07:41:56.510Z,27.77
2019-02-04T07:44:27.471Z,30.47
2019-02-04T07:46:57.777Z,24.80
2019-02-04T07:49:35.150Z,22.80
2019-02-04T07:52:00.786Z,21.27
2019-02-04T07:54:31.095Z,18.80
2019-02-04T07:57:02.096Z,20.97
2019-02-04T07:59:32.407Z,18.63
2019-02-04T08:02:02.679Z,19.03
2019-02-04T08:04:33.538Z,19.80
2019-02-04T08:07:04.279Z,22.23
2019-02-04T08:09:34.895Z,19.53
2019-02-04T08:12:05.473Z,18.67
2019-02-04T08:14:36.076Z,19.90
2019-02-04T08:17:07.499Z,18.03
2019-02-04T08:19:46.709Z,19.50
2019-02-04T08:22:10.231Z,20.63
2019-02-04T08:24:40.877Z,20.63
2019-02-04T08:27:11.660Z,21.13
2019-02-04T08:29:41.942Z,20.80
2019-02-04T08:32:12.303Z,19.87
2019-02-04T08:34:42.708Z,19.00
2019-02-04T08:37:13.304Z,20.90
2019-02-04T08:39:43.632Z,20.27
2019-02-04T08:42:14.407Z,21.47
2019-02-04T08:44:44.730Z,21.07
2019-02-04T08:47:22.894Z,22.70
2019-02-04T08:49:57.740Z,19.00
2019-02-04T08:52:19.675Z,19.90
2019-02-04T08:54:49.952Z,20.00
2019-02-04T08:57:20.567Z,18.17
2019-02-04T08:59:51.083Z,17.43
2019-02-04T09:02:21.652Z,15.87
2019-02-04T09:04:52.413Z,15.57
2019-02-04T09:07:23.214Z,19.00
2019-02-04T09:09:54.566Z,14.40
2019-02-04T09:12:25.373Z,13.70
2019-02-04T09:14:56.230Z,14.67
2019-02-04T09:17:26.649Z,13.23
2019-02-04T09:19:57.037Z,13.33
2019-02-04T09:22:27.629Z,13.73
2019-02-04T09:24:58.198Z,14.67
2019-02-04T09:27:28.920Z,14.63
2019-02-04T09:29:59.187Z,15.53
2019-02-04T09:32:30.028Z,13.03
2019-02-04T09:35:00.829Z,12.83
2019-02-04T09:37:31.259Z,13.43
2019-02-04T09:40:01.671Z,14.10
2019-02-04T09:42:32.349Z,13.13
2019-02-04T09:45:02.628Z,14.17
2019-02-04T09:47:32.959Z,13.83
2019-02-04T09:50:03.332Z,14.27
2019-02-04T09:52:33.647Z,12.87
2019-02-04T09:55:04.749Z,12.40
2019-02-04T09:57:35.077Z,12.93
2019-02-04T10:00:07.165Z,13.27
2019-02-04T10:02:38.011Z,14.07
2019-02-04T10:05:09.893Z,15.00
2019-02-04T10:07:40.456Z,14.43
2019-02-04T10:10:12.555Z,13.20
2019-02-04T10:12:43.192Z,13.83
2019-02-04T10:15:16.676Z,12.87
2019-02-04T10:17:47.451Z,13.87
2019-02-04T10:20:18.061Z,14.90
2019-02-04T10:22:48.687Z,15.57
2019-02-04T10:25:21.521Z,14.30
2019-02-04T10:27:51.794Z,13.37
2019-02-04T10:30:23.305Z,13.50
2019-02-04T10:32:54.077Z,13.27
2019-02-04T10:35:24.431Z,15.10
2019-02-04T10:37:55.446Z,14.97
2019-02-04T10:40:26.903Z,14.07
2019-02-04T10:42:57.597Z,14.27
2019-02-04T10:45:28.356Z,14.00
2019-02-04T10:47:59.294Z,13.97
2019-02-04T10:50:32.389Z,18.03
2019-02-04T10:53:03.345Z,17.27
2019-02-04T10:55:33.968Z,16.27
2019-02-04T10:58:04.620Z,13.57
2019-02-04T11:00:35.572Z,14.00
2019-02-04T11:03:06.563Z,13.13
2019-02-04T11:05:37.618Z,14.40
2019-02-04T11:08:09.527Z,15.77
2019-02-04T11:10:40.039Z,13.53
2019-02-04T11:13:12.846Z,13.50
2019-02-04T11:15:44.408Z,18.00
2019-02-04T11:18:16.038Z,21.97
2019-02-04T11:20:57.632Z,20.80
2019-02-04T11:23:19.473Z,19.40
2019-02-04T11:25:49.763Z,18.20
2019-02-04T11:28:20.394Z,15.03
2019-02-04T11:30:56.577Z,14.70
2019-02-04T11:33:27.937Z,14.03
2019-02-04T11:35:58.319Z,15.40
2019-02-04T11:38:28.650Z,13.00
2019-02-04T11:40:59.373Z,12.50
2019-02-04T11:43:30.237Z,13.27
2019-02-04T11:46:00.621Z,13.63
2019-02-04T11:48:31.249Z,14.30
2019-02-04T11:51:09.282Z,14.20
2019-02-04T11:53:34.116Z,13.27
2019-02-04T11:56:04.608Z,12.77
2019-02-04T11:58:35.262Z,10.00
2019-02-04T12:01:06.507Z,10.90
2019-02-04T12:03:37.262Z,11.87
2019-02-04T12:06:07.930Z,14.27
2019-02-04T12:08:38.270Z,13.10
2019-02-04T12:11:16.074Z,13.03
2019-02-04T12:13:46.561Z,12.80
2019-02-04T12:16:16.944Z,11.40
2019-02-04T12:18:47.917Z,10.90
2019-02-04T12:21:21.568Z,9.93
2019-02-04T12:23:50.534Z,11.53
2019-02-04T12:26:21.698Z,11.67
2019-02-04T12:28:52.343Z,10.63
2019-02-04T12:31:23.255Z,13.27
2019-02-04T12:33:54.014Z,15.57
2019-02-04T12:36:24.353Z,17.27
2019-02-04T12:38:55.404Z,21.03
2019-02-04T12:41:25.900Z,30.20
2019-02-04T12:43:56.493Z,34.20
2019-02-04T12:46:27.083Z,37.40
2019-02-04T12:48:58.455Z,36.20
2019-02-04T12:51:33.647Z,32.00
2019-02-04T12:54:00.889Z,27.50
2019-02-04T12:56:31.708Z,18.83
2019-02-04T12:59:01.975Z,20.37
2019-02-04T13:01:32.418Z,21.67
2019-02-04T13:04:03.496Z,23.53
2019-02-04T13:06:33.771Z,21.73
2019-02-04T13:09:06.146Z,20.97
2019-02-04T13:11:37.911Z,22.20
2019-02-04T13:14:08.597Z,20.87
2019-02-04T13:16:38.894Z,18.53
2019-02-04T13:19:10.659Z,20.67
2019-02-04T13:21:45.526Z,20.23
2019-02-04T13:24:14.358Z,21.10
2019-02-04T13:26:44.972Z,22.13
2019-02-04T13:29:15.372Z,14.73
2019-02-04T13:31:45.669Z,14.67
2019-02-04T13:34:16.094Z,15.83
2019-02-04T13:36:47.001Z,16.93
2019-02-04T13:39:17.320Z,14.00
2019-02-04T13:41:47.841Z,13.37
2019-02-04T13:44:18.139Z,10.73
2019-02-04T13:46:48.812Z,9.67
2019-02-04T13:49:19.565Z,10.30
2019-02-04T13:51:57.015Z,12.20
2019-02-04T13:54:22.269Z,10.83
2019-02-04T13:56:53.078Z,11.67
2019-02-04T13:59:23.481Z,12.47
2019-02-04T14:01:55.106Z,14.67
2019-02-04T14:04:25.819Z,10.13
2019-02-04T14:06:56.074Z,7.97
2019-02-04T14:09:26.352Z,9.60
2019-02-04T14:11:56.833Z,8.40
2019-02-04T14:14:27.188Z,7.57
2019-02-04T14:16:58.060Z,10.67
2019-02-04T14:19:28.336Z,10.63
2019-02-04T14:22:08.894Z,9.37
2019-02-04T14:24:31.167Z,9.27
2019-02-04T14:27:01.755Z,9.40
2019-02-04T14:29:33.845Z,10.40
2019-02-04T14:32:04.681Z,10.97
2019-02-04T14:34:35.105Z,9.87
2019-02-04T14:37:05.711Z,9.77
2019-02-04T14:39:36.494Z,9.40
2019-02-04T14:42:10.733Z,9.40
2019-02-04T14:44:55.417Z,10.03
2019-02-04T14:47:31.272Z,12.93
2019-02-04T14:50:28.979Z,12.13
2019-02-04T14:53:52.642Z,11.30
2019-02-04T14:56:34.667Z,12.60
2019-02-04T14:59:33.879Z,12.07
2019-02-04T15:02:34.752Z,10.60
2019-02-04T15:05:47.622Z,11.63
2019-02-04T15:08:59.080Z,13.20
2019-02-04T15:12:05.174Z,12.13
2019-02-04T15:15:28.895Z,12.83
2019-02-04T15:18:45.045Z,12.13
2019-02-04T15:21:48.788Z,12.77
2019-02-04T15:25:02.364Z,13.20
2019-02-04T15:28:08.368Z,15.10
2019-02-04T15:31:04.791Z,15.80
2019-02-04T15:33:44.971Z,14.30
2019-02-04T15:36:31.632Z,14.80
2019-02-04T15:39:14.975Z,16.60
2019-02-04T15:42:01.744Z,16.97
2019-02-04T15:45:12.507Z,15.97
2019-02-04T15:47:53.763Z,14.93
2019-02-04T15:51:11.039Z,18.13
2019-02-04T15:53:41.703Z,21.80
2019-02-04T15:56:12.867Z,21.07
2019-02-04T15:58:43.367Z,18.67
2019-02-04T16:01:14.138Z,20.10
2019-02-04T16:03:44.478Z,17.63
2019-02-04T16:06:15.197Z,19.63
2019-02-04T16:08:45.771Z,23.13
2019-02-04T16:11:16.058Z,14.93
2019-02-04T16:13:46.403Z,15.30
2019-02-04T16:16:17.158Z,13.50
2019-02-04T16:18:47.560Z,12.63
2019-02-04T16:21:17.847Z,15.93
2019-02-04T16:23:48.678Z,15.20
2019-02-04T16:26:18.952Z,13.73
2019-02-04T16:28:49.451Z,15.30
2019-02-04T16:31:20.114Z,20.10
2019-02-04T16:33:50.827Z,15.37
2019-02-04T16:36:21.568Z,18.53
2019-02-04T16:38:51.888Z,20.37
2019-02-04T16:41:22.183Z,20.77
2019-02-04T16:43:52.539Z,15.10
2019-02-04T16:46:22.866Z,12.37
2019-02-04T16:48:53.175Z,12.03
2019-02-04T16:51:23.937Z,13.60
2019-02-04T16:53:55.406Z,13.00
2019-02-04T16:56:25.829Z,12.63
2019-02-04T16:58:56.781Z,12.67
2019-02-04T17:01:27.387Z,13.03
2019-02-04T17:03:58.067Z,13.27
2019-02-04T17:06:28.428Z,14.33
2019-02-04T17:08:58.716Z,15.00
2019-02-04T17:11:29.228Z,14.57
2019-02-04T17:13:59.606Z,15.30
2019-02-04T17:16:29.900Z,17.17
2019-02-04T17:19:01.707Z,16.00
2019-02-04T17:21:32.436Z,18.83
2019-02-04T17:24:02.882Z,18.23
2019-02-04T17:26:33.660Z,16.27
2019-02-04T17:29:04.756Z,18.67
2019-02-04T17:31:35.141Z,18.23
2019-02-04T17:34:05.725Z,16.80
2019-02-04T17:36:36.493Z,19.73
2019-02-04T17:39:08.692Z,18.03
2019-02-04T17:41:38.988Z,17.77
2019-02-04T17:44:09.676Z,21.93
2019-02-04T17:46:39.963Z,19.80
2019-02-04T17:49:10.242Z,27.27
2019-02-04T17:51:41.145Z,21.63
2019-02-04T17:54:11.610Z,22.97
2019-02-04T17:56:41.954Z,22.53
2019-02-04T17:59:12.720Z,24.37
2019-02-04T18:01:43.634Z,30.50
2019-02-04T18:04:13.866Z,30.03
2019-02-04T18:06:44.583Z,32.13
2019-02-04T18:09:14.861Z,30.50
2019-02-04T18:11:45.317Z,33.87
2019-02-04T18:14:15.882Z,25.33
2019-02-04T18:16:46.237Z,26.00
2019-02-04T18:19:16.892Z,22.47
2019-02-04T18:21:47.584Z,27.30
2019-02-04T18:24:18.256Z,21.77
2019-02-04T18:26:48.971Z,26.23
2019-02-04T18:29:19.679Z,29.87
2019-02-04T18:31:50.181Z,29.37
2019-02-04T18:34:20.555Z,28.23
2019-02-04T18:36:50.970Z,28.27
2019-02-04T18:39:21.269Z,26.30
2019-02-04T18:41:51.653Z,26.87
2019-02-04T18:44:21.948Z,23.77
2019-02-04T18:46:53.108Z,23.30
2019-02-04T18:49:24.030Z,27.20
2019-02-04T18:51:54.357Z,23.60
2019-02-04T18:54:25.054Z,20.87
2019-02-04T18:56:55.762Z,20.43
2019-02-04T18:59:26.278Z,16.10
2019-02-04T19:01:57.136Z,15.77
2019-02-04T19:04:28.075Z,17.93
2019-02-04T19:06:58.339Z,20.70
2019-02-04T19:09:28.799Z,12.77
2019-02-04T19:11:59.175Z,12.83
2019-02-04T19:14:29.732Z,13.80
2019-02-04T19:17:00.231Z,13.77
2019-02-04T19:19:30.517Z,12.83
2019-02-04T19:22:00.856Z,12.87
2019-02-04T19:24:31.523Z,15.13
2019-02-04T19:27:01.791Z,16.03
2019-02-04T19:29:32.391Z,15.37
2019-02-04T19:32:03.078Z,14.03
2019-02-04T19:34:33.643Z,16.03
2019-02-04T19:37:04.237Z,15.30
2019-02-04T19:39:34.900Z,16.50
2019-02-04T19:42:05.964Z,15.93
2019-02-04T19:44:36.422Z,14.40
2019-02-04T19:47:07.512Z,13.97
2019-02-04T19:49:37.787Z,13.83
2019-02-04T19:52:08.708Z,11.87
2019-02-04T19:54:39.167Z,12.60
2019-02-04T19:57:09.438Z,13.40
2019-02-04T19:59:40.074Z,13.40
2019-02-04T20:02:10.753Z,13.23
2019-02-04T20:04:42.029Z,14.73
2019-02-04T20:07:12.645Z,16.43
2019-02-04T20:09:43.731Z,17.17
2019-02-04T20:12:14.024Z,17.97
2019-02-04T20:14:44.488Z,17.30
2019-02-04T20:17:14.803Z,18.00
2019-02-04T20:19:45.427Z,17.97
2019-02-04T20:22:16.000Z,18.43
2019-02-04T20:24:46.267Z,19.13
2019-02-04T20:27:16.941Z,18.20
2019-02-04T20:29:47.527Z,25.10
2019-02-04T20:32:17.896Z,22.33
2019-02-04T20:34:48.309Z,28.67
2019-02-04T20:37:19.467Z,25.60
2019-02-04T20:39:49.765Z,30.23
2019-02-04T20:42:21.080Z,30.80
2019-02-04T20:44:51.446Z,29.23
2019-02-04T20:47:21.763Z,26.40
2019-02-04T20:49:52.599Z,28.50
2019-02-04T20:52:22.922Z,19.63
2019-02-04T20:54:53.394Z,16.93
2019-02-04T20:57:24.100Z,20.17
2019-02-04T20:59:54.510Z,20.87
2019-02-04T21:02:24.842Z,25.63
2019-02-04T21:04:55.848Z,23.10
2019-02-04T21:07:26.159Z,22.97
2019-02-04T21:09:56.508Z,13.93
2019-02-04T21:12:27.135Z,20.07
2019-02-04T21:14:57.528Z,17.37
2019-02-04T21:17:27.813Z,14.10
2019-02-04T21:19:58.446Z,17.33
2019-02-04T21:22:28.742Z,19.93
2019-02-04T21:24:59.507Z,20.20
2019-02-04T21:27:29.783Z,20.87
2019-02-04T21:30:00.340Z,23.20
2019-02-04T21:32:32.592Z,26.63
2019-02-04T21:35:03.248Z,25.67
2019-02-04T21:37:33.522Z,23.37
2019-02-04T21:40:05.246Z,21.90
2019-02-04T21:42:36.573Z,16.63
2019-02-04T21:45:08.622Z,18.90
2019-02-04T21:47:39.245Z,21.33
2019-02-04T21:50:12.999Z,19.90
2019-02-04T21:52:43.392Z,20.50
2019-02-04T21:55:14.265Z,17.57
2019-02-04T21:57:45.357Z,20.70
2019-02-04T22:00:21.226Z,19.97
2019-02-04T22:02:51.601Z,19.53
2019-02-04T22:05:23.647Z,19.83
2019-02-04T22:07:53.932Z,20.30
2019-02-04T22:10:25.551Z,22.10
2019-02-04T22:12:55.938Z,22.83
2019-02-04T22:15:26.358Z,23.80
2019-02-04T22:17:56.782Z,23.13
2019-02-04T22:20:27.519Z,23.13
2019-02-04T22:22:57.843Z,23.73
2019-02-04T22:25:28.298Z,22.30
2019-02-04T22:27:58.608Z,21.90
2019-02-04T22:30:30.199Z,25.50
2019-02-04T22:33:00.740Z,23.07
2019-02-04T22:35:31.028Z,23.87
2019-02-04T22:38:01.827Z,24.33
2019-02-04T22:40:32.165Z,19.67
2019-02-04T22:43:02.491Z,18.40
2019-02-04T22:45:32.777Z,15.87
2019-02-04T22:48:03.295Z,19.83
2019-02-04T22:50:33.596Z,22.97
2019-02-04T22:53:04.396Z,23.93
2019-02-04T22:55:34.696Z,23.30
2019-02-04T22:58:05.427Z,22.93
2019-02-04T23:01:03.727Z,22.53
2019-02-04T23:03:34.510Z,22.10
2019-02-04T23:06:04.911Z,21.53
2019-02-04T23:08:35.691Z,21.90
2019-02-04T23:11:06.071Z,15.97
2019-02-04T23:13:36.764Z,20.97
2019-02-04T23:16:07.151Z,20.97
2019-02-04T23:18:37.466Z,19.80
2019-02-04T23:21:07.776Z,20.93
2019-02-04T23:23:38.106Z,19.50
2019-02-04T23:26:09.018Z,19.67
2019-02-04T23:28:39.339Z,17.57
2019-02-04T23:31:09.981Z,19.00
2019-02-04T23:33:40.397Z,17.70
2019-02-04T23:36:10.903Z,16.47
2019-02-04T23:38:41.592Z,14.30
2019-02-04T23:41:11.842Z,14.27
2019-02-04T23:43:42.115Z,14.23
2019-02-04T23:46:12.925Z,13.90
2019-02-04T23:48:43.210Z,13.63
2019-02-04T23:51:13.525Z,15.40
2019-02-04T23:53:45.566Z,16.00
2019-02-04T23:56:16.112Z,17.47
2019-02-04T23:58:46.407Z,14.60
